Time;durP1;ratioP1;P1;durP2;ratioP2;P2;SDS_P1;SDS_P2;PMS_P1;PMS_P2;Temp;Humidity;BMP_temperature;BMP_pressure;BME280_temperature;BME280_humidity;BME280_pressure;Samples;Min_cycle;Max_cycle;Signal;HPM_P1;HPM_P2
2023/10/03 00:00:36;;;;;;;5.18;2.90;;;31.30;30.50;;;;;;5076386;28;20028;-81
2023/10/03 00:03:04;;;;;;;7.35;2.67;;;31.50;30.80;;;;;;5076120;28;20024;-81
2023/10/03 00:05:32;;;;;;;4.07;2.85;;;31.70;29.50;;;;;;5074531;28;20437;-82
2023/10/03 00:08:06;;;;;;;6.50;2.78;;;31.80;29.80;;;;;;5055018;28;20356;-78
2023/10/03 00:10:38;;;;;;;5.25;2.78;;;31.90;29.30;;;;;;5072327;28;20017;-82
2023/10/03 00:13:08;;;;;;;9.20;2.97;;;32.00;29.90;;;;;;5070504;28;20365;-85
2023/10/03 00:15:45;;;;;;;3.85;2.67;;;32.30;28.80;;;;;;5072599;28;20020;-80
2023/10/03 00:18:14;;;;;;;3.72;2.70;;;32.40;28.30;;;;;;5071884;28;20029;-82
2023/10/03 00:20:43;;;;;;;5.93;2.80;;;32.60;28.30;;;;;;5072300;28;20048;-89
2023/10/03 00:23:10;;;;;;;4.15;2.80;;;32.70;27.80;;;;;;5054277;28;20029;-81
2023/10/03 00:25:38;;;;;;;5.60;3.00;;;32.80;27.80;;;;;;5068004;28;20047;-80
2023/10/03 00:28:10;;;;;;;8.43;2.88;;;32.90;27.00;;;;;;5071729;28;20028;-86
2023/10/03 00:30:44;;;;;;;4.78;2.83;;;32.90;27.30;;;;;;5064185;28;20052;-84
2023/10/03 00:33:13;;;;;;;6.40;2.83;;;32.90;27.40;;;;;;5054702;28;20467;-83
2023/10/03 00:35:40;;;;;;;3.47;2.67;;;33.00;27.50;;;;;;5059795;28;20037;-89
2023/10/03 00:38:13;;;;;;;6.28;3.28;;;33.20;27.80;;;;;;5070885;28;20087;-87
2023/10/03 00:40:40;;;;;;;4.03;2.55;;;33.40;27.10;;;;;;5069593;28;20130;-86
2023/10/03 00:43:11;;;;;;;4.22;2.63;;;33.60;26.80;;;;;;5061984;28;20028;-85
2023/10/03 00:45:39;;;;;;;4.22;2.65;;;33.60;26.70;;;;;;5058917;28;20131;-83
2023/10/03 00:48:08;;;;;;;5.90;3.45;;;33.70;26.70;;;;;;5061702;28;20016;-85
2023/10/03 00:50:37;;;;;;;4.22;2.83;;;33.80;25.80;;;;;;5053437;28;20021;-88
2023/10/03 00:53:12;;;;;;;4.68;2.75;;;33.80;26.30;;;;;;5055444;28;20021;-84
2023/10/03 00:55:43;;;;;;;4.57;2.63;;;33.90;25.80;;;;;;5062761;28;20537;-87
2023/10/03 01:00:54;;;;;;;4.55;2.65;;;34.10;25.50;;;;;;5069777;28;20048;-88
2023/10/03 01:03:28;;;;;;;4.32;2.80;;;34.10;24.80;;;;;;5084468;28;20044;-84
2023/10/03 01:06:08;;;;;;;5.45;2.88;;;34.30;24.90;;;;;;5072456;28;20480;-84
2023/10/03 01:08:41;;;;;;;10.50;3.05;;;34.30;25.10;;;;;;5068973;28;20025;-78
2023/10/03 01:11:20;;;;;;;5.00;2.70;;;34.30;24.90;;;;;;5089633;28;20564;-88
2023/10/03 01:13:49;;;;;;;5.00;2.85;;;34.30;24.80;;;;;;5075278;28;20033;-82
2023/10/03 01:16:36;;;;;;;4.22;2.63;;;34.50;24.60;;;;;;5074229;28;20133;-84
2023/10/03 01:19:29;;;;;;;4.40;3.15;;;34.60;24.40;;;;;;5072795;28;20029;-82
2023/10/03 01:21:57;;;;;;;3.97;2.75;;;34.70;24.40;;;;;;5070948;28;20047;-87
2023/10/03 01:24:24;;;;;;;3.08;2.53;;;34.80;24.90;;;;;;5071805;28;20029;-83
2023/10/03 01:26:53;;;;;;;4.25;2.53;;;34.90;25.80;;;;;;5073294;28;20025;-84
2023/10/03 01:29:24;;;;;;;3.72;2.70;;;35.10;25.40;;;;;;5092463;28;20042;-80
2023/10/03 01:31:52;;;;;;;5.75;2.80;;;35.20;24.90;;;;;;5070640;28;20074;-84
2023/10/03 01:34:20;;;;;;;7.65;2.80;;;35.20;24.90;;;;;;5075253;28;20025;-81
2023/10/03 01:36:48;;;;;;;5.57;2.90;;;35.10;24.30;;;;;;5076946;28;20415;-87
2023/10/03 01:39:19;;;;;;;4.65;3.10;;;35.10;24.40;;;;;;5087963;28;20510;-83
2023/10/03 01:41:46;;;;;;;4.90;3.03;;;35.10;24.90;;;;;;5080082;28;20028;-80
2023/10/03 01:44:16;;;;;;;7.68;3.60;;;35.20;25.30;;;;;;5090135;28;20449;-85
2023/10/03 01:46:44;;;;;;;4.35;3.13;;;35.20;24.80;;;;;;5068894;28;20020;-82
2023/10/03 01:49:14;;;;;;;4.15;3.00;;;35.20;24.80;;;;;;5067365;28;20507;-85
2023/10/03 01:51:43;;;;;;;4.05;2.65;;;35.30;24.70;;;;;;5063382;28;20017;-81
2023/10/03 01:54:11;;;;;;;5.38;3.00;;;35.30;25.40;;;;;;5054035;28;21951;-87
2023/10/03 01:56:38;;;;;;;4.30;2.85;;;35.30;24.30;;;;;;5060732;28;20120;-86
2023/10/03 01:59:09;;;;;;;7.35;3.28;;;35.40;24.20;;;;;;5065245;28;20052;-85
2023/10/03 02:01:37;;;;;;;4.45;2.75;;;35.60;24.40;;;;;;5069630;28;20027;-84
2023/10/03 02:04:06;;;;;;;8.73;3.20;;;35.50;24.30;;;;;;5079610;28;20028;-86
2023/10/03 02:06:33;;;;;;;10.05;3.47;;;35.70;24.60;;;;;;5075397;28;20391;-79
2023/10/03 02:09:03;;;;;;;6.07;2.83;;;35.80;24.00;;;;;;5059782;28;20124;-78
2023/10/03 02:11:32;;;;;;;6.60;3.42;;;35.80;23.70;;;;;;5066206;28;21044;-82
2023/10/03 02:14:01;;;;;;;4.22;3.08;;;35.90;23.40;;;;;;5071671;28;20058;-84
2023/10/03 02:16:28;;;;;;;8.60;3.40;;;35.80;23.90;;;;;;5070175;28;20031;-82
2023/10/03 02:18:56;;;;;;;5.25;2.70;;;36.00;24.80;;;;;;5074850;28;20029;-87
2023/10/03 02:21:23;;;;;;;4.55;2.60;;;36.00;23.70;;;;;;5072284;28;20446;-86
2023/10/03 02:23:51;;;;;;;5.60;2.92;;;36.10;23.60;;;;;;5082991;28;20505;-85
2023/10/03 02:26:20;;;;;;;4.22;2.38;;;36.10;21.70;;;;;;5079750;28;20471;-81
2023/10/03 02:28:48;;;;;;;8.13;2.65;;;36.00;22.20;;;;;;5075669;28;20166;-81
2023/10/03 02:31:15;;;;;;;4.88;2.33;;;36.00;21.30;;;;;;5073397;28;20052;-82
2023/10/03 02:33:44;;;;;;;4.43;2.40;;;36.00;21.80;;;;;;5075940;28;20109;-85
2023/10/03 02:36:11;;;;;;;6.80;2.47;;;35.90;20.60;;;;;;5076140;28;20036;-85
2023/10/03 02:38:39;;;;;;;5.97;2.83;;;36.00;20.80;;;;;;5075489;28;20046;-86
2023/10/03 02:41:07;;;;;;;4.22;2.20;;;36.20;20.40;;;;;;5072568;28;20029;-88
2023/10/03 02:43:46;;;;;;;6.45;2.55;;;36.30;19.80;;;;;;5070543;28;20448;-87
2023/10/03 02:46:15;;;;;;;4.22;2.58;;;36.30;20.50;;;;;;5070963;28;20032;-87
2023/10/03 02:48:43;;;;;;;3.55;2.40;;;36.30;20.80;;;;;;5068640;28;20021;-81
2023/10/03 02:51:12;;;;;;;3.92;2.40;;;36.30;19.70;;;;;;5062109;28;20079;-84
2023/10/03 02:53:40;;;;;;;5.07;2.10;;;36.30;18.40;;;;;;5064646;28;20052;-84
2023/10/03 02:56:08;;;;;;;4.32;2.58;;;36.30;18.40;;;;;;5067834;28;20057;-83
2023/10/03 02:58:38;;;;;;;5.97;2.90;;;36.30;19.10;;;;;;5072727;28;20032;-88
2023/10/03 03:01:05;;;;;;;3.53;2.53;;;36.30;19.80;;;;;;5072062;28;20464;-86
2023/10/03 03:03:34;;;;;;;3.90;2.65;;;36.30;19.80;;;;;;5070217;28;20430;-84
2023/10/03 03:06:09;;;;;;;3.45;2.50;;;36.30;19.50;;;;;;5061319;28;20403;-85
2023/10/03 03:08:44;;;;;;;5.13;2.80;;;36.40;19.60;;;;;;5061983;28;20558;-86
2023/10/03 03:11:11;;;;;;;9.68;3.30;;;36.40;20.70;;;;;;5072697;28;20025;-85
2023/10/03 03:13:38;;;;;;;8.02;2.80;;;36.50;23.40;;;;;;5073852;28;20029;-86
2023/10/03 03:16:06;;;;;;;6.32;2.70;;;36.50;20.80;;;;;;5061383;28;20484;-83
2023/10/03 03:18:41;;;;;;;6.32;2.40;;;36.50;18.80;;;;;;5065378;28;20109;-86
2023/10/03 03:21:20;;;;;;;3.60;2.28;;;36.60;19.40;;;;;;5072724;28;20454;-84
2023/10/03 03:24:34;;;;;;;3.45;2.40;;;36.60;18.40;;;;;;5070728;28;20016;-86
2023/10/03 03:26:46;;;;;;;3.88;2.50;;;36.60;18.80;;;;;;5075208;28;20487;-83
2023/10/03 03:29:31;;;;;;;7.03;2.87;;;36.60;18.50;;;;;;5068179;28;20107;-86
2023/10/03 03:31:58;;;;;;;6.88;2.47;;;36.50;18.80;;;;;;5067764;28;20036;-85
2023/10/03 03:34:27;;;;;;;3.80;2.28;;;36.70;19.10;;;;;;5072562;28;20033;-86
2023/10/03 03:37:15;;;;;;;3.13;2.40;;;36.80;18.80;;;;;;5067114;28;20061;-86
2023/10/03 03:40:10;;;;;;;4.90;2.25;;;36.80;18.90;;;;;;5073119;28;20045;-83
2023/10/03 03:42:32;;;;;;;3.92;2.67;;;36.90;18.80;;;;;;5055096;28;20075;-84
2023/10/03 03:45:06;;;;;;;3.25;2.28;;;37.00;19.40;;;;;;5069006;28;20426;-87
2023/10/03 03:47:33;;;;;;;4.57;2.30;;;37.10;18.40;;;;;;5067136;28;20471;-85
2023/10/03 03:50:04;;;;;;;2.83;2.35;;;37.20;19.20;;;;;;5067831;28;20032;-88
2023/10/03 03:52:34;;;;;;;4.10;2.22;;;37.20;19.20;;;;;;5077715;28;20024;-84
2023/10/03 03:55:03;;;;;;;5.57;2.17;;;37.10;19.60;;;;;;5066842;28;20056;-87
2023/10/03 03:57:31;;;;;;;6.18;2.30;;;37.10;18.80;;;;;;5072454;28;20111;-83
2023/10/03 03:59:58;;;;;;;2.70;2.33;;;37.10;18.90;;;;;;5061273;28;20024;-81
2023/10/03 04:02:30;;;;;;;3.67;2.58;;;37.10;18.50;;;;;;5062673;28;20092;-85
2023/10/03 04:04:57;;;;;;;4.25;2.60;;;37.10;18.70;;;;;;5059154;28;20036;-83
2023/10/03 04:07:25;;;;;;;3.55;2.33;;;37.20;19.90;;;;;;5071961;28;20111;-85
2023/10/03 04:09:55;;;;;;;3.38;2.42;;;37.20;18.60;;;;;;5067657;28;20142;-88
2023/10/03 04:12:23;;;;;;;3.42;2.50;;;37.20;18.90;;;;;;5066797;28;20116;-80
2023/10/03 04:14:57;;;;;;;5.85;2.30;;;37.20;18.70;;;;;;5054704;28;20024;-83
2023/10/03 04:17:24;;;;;;;5.07;2.23;;;37.20;18.60;;;;;;5079444;28;20059;-83
2023/10/03 04:19:52;;;;;;;5.50;2.45;;;37.30;18.50;;;;;;5057938;28;20054;-85
2023/10/03 04:22:19;;;;;;;3.55;2.42;;;37.30;19.50;;;;;;5053994;28;20033;-87
2023/10/03 04:24:46;;;;;;;3.50;2.65;;;37.20;18.80;;;;;;5063930;28;20487;-86
2023/10/03 04:27:14;;;;;;;3.35;2.20;;;37.10;19.50;;;;;;5064739;28;20113;-86
2023/10/03 04:29:42;;;;;;;4.05;2.53;;;37.00;19.50;;;;;;5066571;28;20053;-82
2023/10/03 04:32:09;;;;;;;3.67;2.50;;;36.90;19.00;;;;;;5079858;28;20033;-84
2023/10/03 04:34:37;;;;;;;4.65;2.50;;;36.90;19.00;;;;;;5068713;28;20074;-82
2023/10/03 04:37:06;;;;;;;4.28;2.42;;;37.00;19.00;;;;;;5057987;28;20025;-86
2023/10/03 04:39:35;;;;;;;2.88;2.38;;;37.00;18.80;;;;;;5078241;28;20043;-86
2023/10/03 04:42:05;;;;;;;3.30;2.30;;;37.00;19.10;;;;;;5071709;28;20029;-87
2023/10/03 04:44:34;;;;;;;2.50;2.13;;;37.00;18.30;;;;;;5064004;28;20032;-83
2023/10/03 04:47:01;;;;;;;3.50;2.42;;;37.10;18.80;;;;;;5070415;28;20036;-81
2023/10/03 04:49:28;;;;;;;4.55;2.88;;;37.00;18.50;;;;;;5069455;28;20036;-89
2023/10/03 04:51:56;;;;;;;5.22;3.00;;;37.00;18.30;;;;;;5062259;28;20029;-87
2023/10/03 04:54:23;;;;;;;7.25;2.72;;;37.00;18.40;;;;;;5065940;28;20033;-85
2023/10/03 04:56:51;;;;;;;4.68;2.50;;;37.00;19.20;;;;;;5072463;28;20024;-86
2023/10/03 04:59:20;;;;;;;4.22;2.60;;;37.10;19.50;;;;;;5068892;28;20502;-80
2023/10/03 05:01:49;;;;;;;3.15;2.20;;;37.10;18.60;;;;;;5064542;28;20033;-84
2023/10/03 05:04:17;;;;;;;2.83;2.47;;;37.00;18.60;;;;;;5055919;28;20051;-84
2023/10/03 05:06:47;;;;;;;3.03;2.25;;;36.90;18.20;;;;;;5061415;28;20040;-81
2023/10/03 05:09:14;;;;;;;8.05;3.35;;;36.90;18.90;;;;;;5058942;28;20025;-84
2023/10/03 05:11:42;;;;;;;8.18;4.03;;;37.00;22.00;;;;;;5057846;28;20024;-84
2023/10/03 05:14:11;;;;;;;13.07;4.60;;;36.90;26.10;;;;;;5057553;28;20025;-83
2023/10/03 05:16:39;;;;;;;9.93;4.45;;;36.70;27.00;;;;;;5068731;28;20027;-79
2023/10/03 05:19:07;;;;;;;16.38;4.78;;;36.60;27.80;;;;;;5059488;28;20025;-81
2023/10/03 05:21:34;;;;;;;15.80;5.32;;;36.40;28.70;;;;;;5062815;28;20056;-82
2023/10/03 05:24:03;;;;;;;13.68;5.00;;;36.10;29.60;;;;;;5062784;28;20036;-84
2023/10/03 05:26:32;;;;;;;12.77;5.00;;;35.80;30.00;;;;;;5061056;28;20541;-81
2023/10/03 05:28:59;;;;;;;13.75;5.15;;;35.60;30.40;;;;;;5072547;28;20032;-83
2023/10/03 05:31:27;;;;;;;15.07;5.78;;;35.40;31.00;;;;;;5066320;28;20070;-85
2023/10/03 05:33:56;;;;;;;10.60;5.07;;;35.30;31.30;;;;;;5074791;28;20531;-85
2023/10/03 05:36:23;;;;;;;16.17;5.18;;;35.00;31.30;;;;;;5074993;28;20020;-84
2023/10/03 05:38:51;;;;;;;11.75;4.40;;;34.80;31.40;;;;;;5066699;28;20079;-80
2023/10/03 05:41:24;;;;;;;11.43;4.82;;;34.50;31.90;;;;;;5067778;28;20053;-84
2023/10/03 05:43:52;;;;;;;11.82;5.25;;;34.40;31.60;;;;;;5071369;28;20055;-82
2023/10/03 05:46:19;;;;;;;11.30;4.95;;;34.20;31.70;;;;;;5065776;28;20044;-84
2023/10/03 05:48:46;;;;;;;12.85;5.18;;;34.00;32.10;;;;;;5073838;28;20017;-83
2023/10/03 05:51:14;;;;;;;14.52;5.28;;;33.80;32.40;;;;;;5074937;28;20036;-84
2023/10/03 05:53:41;;;;;;;12.30;5.65;;;33.60;32.70;;;;;;5075726;28;21213;-80
2023/10/03 05:56:10;;;;;;;13.60;4.90;;;33.40;32.70;;;;;;5075289;28;20031;-84
2023/10/03 05:58:37;;;;;;;10.80;5.43;;;33.30;33.40;;;;;;5075910;28;20023;-85
2023/10/03 06:01:12;;;;;;;10.80;5.85;;;33.00;33.30;;;;;;5074997;28;20025;-84
2023/10/03 06:03:39;;;;;;;14.15;6.03;;;32.80;33.70;;;;;;5072044;28;20078;-84
2023/10/03 06:06:07;;;;;;;10.32;5.57;;;32.60;33.80;;;;;;5073182;28;20033;-81
2023/10/03 06:08:34;;;;;;;13.38;5.65;;;32.50;34.20;;;;;;5092473;28;20508;-82
2023/10/03 06:11:03;;;;;;;11.68;5.10;;;32.30;34.30;;;;;;5073366;28;20073;-80
2023/10/03 06:13:31;;;;;;;11.43;5.18;;;32.20;34.60;;;;;;5067252;28;20037;-82
2023/10/03 06:16:03;;;;;;;12.70;5.80;;;32.10;34.40;;;;;;5070465;28;20051;-82
2023/10/03 06:18:30;;;;;;;12.77;5.70;;;31.90;34.70;;;;;;5068987;28;20483;-80
2023/10/03 06:20:57;;;;;;;12.88;5.82;;;31.80;35.10;;;;;;5071765;28;20802;-80
2023/10/03 06:23:25;;;;;;;16.13;6.45;;;31.80;35.30;;;;;;5060002;28;20028;-81
2023/10/03 06:25:52;;;;;;;13.35;5.55;;;31.60;35.10;;;;;;5061093;28;20403;-85
2023/10/03 06:28:21;;;;;;;15.35;6.93;;;31.50;35.50;;;;;;5055073;28;20078;-84
2023/10/03 06:30:50;;;;;;;15.52;6.70;;;31.40;35.70;;;;;;5071759;28;20029;-80
2023/10/03 06:33:18;;;;;;;16.88;6.10;;;31.30;35.90;;;;;;5074098;28;20037;-79
2023/10/03 06:35:45;;;;;;;14.40;6.25;;;31.20;36.10;;;;;;5071636;28;20134;-81
2023/10/03 06:38:14;;;;;;;12.55;6.32;;;31.00;36.60;;;;;;5065708;28;20076;-82
2023/10/03 06:40:43;;;;;;;14.60;6.32;;;31.00;36.50;;;;;;5059556;28;20476;-81
2023/10/03 06:43:14;;;;;;;11.98;6.63;;;30.90;36.80;;;;;;5062592;28;20098;-83
2023/10/03 06:45:41;;;;;;;12.93;5.93;;;30.80;36.60;;;;;;5070900;28;20490;-83
2023/10/03 06:48:10;;;;;;;15.98;7.05;;;30.70;37.00;;;;;;5073573;28;20036;-82
2023/10/03 06:50:38;;;;;;;14.82;6.57;;;30.60;37.00;;;;;;5070588;28;20033;-81
2023/10/03 06:53:05;;;;;;;16.77;7.03;;;30.60;37.20;;;;;;5072874;28;20020;-83
2023/10/03 06:55:35;;;;;;;13.15;6.50;;;30.50;36.90;;;;;;5079054;28;20024;-84
2023/10/03 06:58:03;;;;;;;15.93;7.78;;;30.40;37.40;;;;;;5079053;28;20020;-80
2023/10/03 07:00:32;;;;;;;13.55;7.43;;;30.40;37.30;;;;;;5072997;28;20048;-81
2023/10/03 07:03:00;;;;;;;12.82;6.78;;;30.30;37.10;;;;;;5073002;28;20023;-84
2023/10/03 07:05:27;;;;;;;13.52;6.97;;;30.20;37.40;;;;;;5073638;28;20032;-84
2023/10/03 07:07:56;;;;;;;12.50;6.47;;;30.10;38.00;;;;;;5079926;28;20055;-83
2023/10/03 07:10:25;;;;;;;13.82;6.82;;;30.00;38.00;;;;;;5068606;28;20059;-82
2023/10/03 07:12:52;;;;;;;21.25;7.20;;;29.90;38.20;;;;;;5065460;28;20028;-81
2023/10/03 07:15:20;;;;;;;16.40;7.78;;;29.90;38.50;;;;;;5066097;28;20036;-80
2023/10/03 07:17:47;;;;;;;22.05;7.63;;;29.80;38.90;;;;;;5065279;28;20028;-85
2023/10/03 07:20:16;;;;;;;17.80;7.15;;;29.70;39.00;;;;;;5063141;28;20086;-80
2023/10/03 07:22:43;;;;;;;14.23;7.13;;;29.60;39.20;;;;;;5060875;28;20021;-80
2023/10/03 07:25:13;;;;;;;16.00;7.13;;;29.60;39.40;;;;;;5063168;28;20033;-83
2023/10/03 07:27:41;;;;;;;15.70;7.07;;;29.50;39.60;;;;;;5072317;28;20035;-83
2023/10/03 07:30:10;;;;;;;16.58;7.53;;;29.40;40.00;;;;;;5063951;28;20186;-84
2023/10/03 07:32:38;;;;;;;13.75;7.40;;;29.40;40.40;;;;;;5065700;28;20085;-84
2023/10/03 07:35:10;;;;;;;18.08;7.20;;;29.30;40.80;;;;;;5076220;28;20547;-85
2023/10/03 07:37:39;;;;;;;14.40;6.93;;;29.20;41.30;;;;;;5071602;28;20167;-82
2023/10/03 07:40:07;;;;;;;15.50;7.32;;;29.10;41.80;;;;;;5057758;28;20035;-84
2023/10/03 07:42:35;;;;;;;17.58;7.18;;;29.00;42.30;;;;;;5073971;28;20074;-82
2023/10/03 07:45:05;;;;;;;19.70;8.30;;;28.90;42.80;;;;;;5082868;28;20075;-83
2023/10/03 07:47:33;;;;;;;16.85;8.55;;;28.80;43.20;;;;;;5080622;28;20122;-81
2023/10/03 07:50:03;;;;;;;19.35;7.72;;;28.70;43.60;;;;;;5089593;28;20024;-84
2023/10/03 07:52:30;;;;;;;19.17;8.23;;;28.60;44.10;;;;;;5073314;28;20048;-81
2023/10/03 07:54:59;;;;;;;21.95;7.38;;;28.50;44.70;;;;;;5073317;28;20024;-84
2023/10/03 07:57:28;;;;;;;17.35;7.82;;;28.40;45.20;;;;;;5066434;28;20017;-80
2023/10/03 07:59:56;;;;;;;20.45;8.68;;;28.30;45.50;;;;;;5073248;28;20483;-80
2023/10/03 08:02:32;;;;;;;17.05;8.00;;;28.10;46.20;;;;;;5072617;28;20024;-82
2023/10/03 08:05:02;;;;;;;19.45;7.82;;;28.00;46.20;;;;;;5061793;28;20039;-81
2023/10/03 08:07:31;;;;;;;22.63;8.88;;;27.90;46.50;;;;;;5068701;28;20044;-82
2023/10/03 08:10:02;;;;;;;18.67;7.85;;;27.80;47.00;;;;;;5066417;28;20024;-81
2023/10/03 08:12:32;;;;;;;19.08;7.75;;;27.80;47.40;;;;;;5066590;28;20121;-82
2023/10/03 08:14:59;;;;;;;18.20;7.93;;;27.70;47.60;;;;;;5066167;28;20024;-83
2023/10/03 08:17:31;;;;;;;15.98;7.28;;;27.60;48.10;;;;;;5068444;28;20032;-81
2023/10/03 08:20:03;;;;;;;21.27;8.02;;;27.50;48.50;;;;;;5066269;28;20108;-83
2023/10/03 08:22:31;;;;;;;20.88;7.68;;;27.50;48.70;;;;;;5068647;28;20078;-82
2023/10/03 08:25:00;;;;;;;23.38;7.65;;;27.40;49.00;;;;;;5071656;28;20036;-82
2023/10/03 08:27:30;;;;;;;22.73;8.43;;;27.30;49.70;;;;;;5054854;28;20064;-82
2023/10/03 08:29:58;;;;;;;19.05;7.38;;;27.30;50.00;;;;;;5063200;28;20028;-82
2023/10/03 08:32:26;;;;;;;20.77;8.32;;;27.20;50.40;;;;;;5072557;28;20021;-81
2023/10/03 08:34:53;;;;;;;20.58;8.07;;;27.00;50.40;;;;;;5071960;28;20025;-81
2023/10/03 08:37:23;;;;;;;22.00;7.97;;;27.00;50.60;;;;;;5056533;28;20028;-84
2023/10/03 08:39:51;;;;;;;20.67;7.10;;;26.90;50.80;;;;;;5067785;28;20133;-81
2023/10/03 08:42:34;;;;;;;21.65;8.32;;;26.90;50.80;;;;;;5054295;28;20028;-81
2023/10/03 08:45:27;;;;;;;24.45;7.78;;;26.90;51.10;;;;;;5071156;28;20043;-82
2023/10/03 08:47:55;;;;;;;17.40;7.25;;;26.80;51.10;;;;;;5057549;28;20048;-81
2023/10/03 08:50:35;;;;;;;22.30;7.93;;;26.80;51.10;;;;;;5068594;28;20028;-82
2023/10/03 08:55:50;;;;;;;22.25;7.93;;;26.70;51.40;;;;;;5054700;28;20082;-81
2023/10/03 08:58:25;;;;;;;21.05;8.07;;;26.60;51.50;;;;;;5065523;28;20103;-82
2023/10/03 09:01:04;;;;;;;18.77;7.38;;;26.60;51.70;;;;;;5068678;28;20071;-81
2023/10/03 09:03:48;;;;;;;26.85;8.32;;;26.60;51.70;;;;;;5060972;28;20033;-82
2023/10/03 09:06:20;;;;;;;24.52;8.80;;;26.50;51.70;;;;;;5066649;28;20044;-80
2023/10/03 09:09:08;;;;;;;20.58;8.80;;;26.50;51.70;;;;;;5069614;28;20122;-83
2023/10/03 09:11:39;;;;;;;20.20;8.38;;;26.50;51.60;;;;;;5069107;28;20472;-81
2023/10/03 09:14:08;;;;;;;19.13;7.68;;;26.40;51.70;;;;;;5070020;28;20021;-81
2023/10/03 09:16:39;;;;;;;22.95;7.95;;;26.40;51.70;;;;;;5055183;28;20021;-81
2023/10/03 09:19:09;;;;;;;20.05;7.53;;;26.40;51.80;;;;;;5066488;28;20039;-81
2023/10/03 09:21:37;;;;;;;23.95;8.15;;;26.40;51.90;;;;;;5069842;28;20031;-81
2023/10/03 09:24:16;;;;;;;19.27;6.90;;;26.30;51.70;;;;;;5070048;28;20082;-83
2023/10/03 09:26:51;;;;;;;21.98;7.70;;;26.30;51.80;;;;;;5059742;28;20111;-83
2023/10/03 09:29:32;;;;;;;;;;;26.30;51.70;;;;;;5065424;28;20059;-84
2023/10/03 09:32:12;;;;;;;19.65;7.43;;;26.40;51.50;;;;;;5061992;28;19905;-84
2023/10/03 09:34:45;;;;;;;21.58;8.23;;;26.40;51.80;;;;;;5066895;28;20086;-82
2023/10/03 09:37:13;;;;;;;17.75;7.05;;;26.30;51.90;;;;;;5059181;28;20356;-81
2023/10/03 09:39:49;;;;;;;23.15;7.97;;;26.30;52.20;;;;;;5061930;28;20029;-81
2023/10/03 09:42:23;;;;;;;20.98;7.13;;;26.30;52.20;;;;;;5055281;28;20115;-81
2023/10/03 09:44:51;;;;;;;20.63;6.95;;;26.30;52.20;;;;;;5066422;28;20025;-83
2023/10/03 09:47:19;;;;;;;23.42;7.97;;;26.30;52.30;;;;;;5067219;28;20036;-81
2023/10/03 09:49:50;;;;;;;18.80;7.60;;;26.30;52.40;;;;;;5063445;28;20051;-81
2023/10/03 09:52:28;;;;;;;21.08;8.27;;;26.20;52.50;;;;;;5070055;28;20036;-84
2023/10/03 09:54:59;;;;;;;22.83;7.68;;;26.20;52.80;;;;;;5068082;28;20031;-84
2023/10/03 09:57:32;;;;;;;17.92;7.00;;;26.20;52.90;;;;;;5070739;28;20024;-82
2023/10/03 10:00:00;;;;;;;17.27;6.32;;;26.10;53.10;;;;;;5073761;28;20036;-83
2023/10/03 10:02:36;;;;;;;22.48;7.85;;;26.10;53.00;;;;;;5063725;28;20464;-81
2023/10/03 10:05:22;;;;;;;;;;;26.00;53.10;;;;;;5071137;28;20487;-82
2023/10/03 10:08:06;;;;;;;19.75;7.25;;;26.00;53.10;;;;;;5062815;28;20349;-84
2023/10/03 10:10:35;;;;;;;16.98;6.97;;;26.00;53.10;;;;;;5071233;28;20036;-83
2023/10/03 10:13:12;;;;;;;25.17;7.70;;;26.00;53.10;;;;;;5074757;28;20025;-81
2023/10/03 10:16:20;;;;;;;19.55;7.55;;;25.90;53.20;;;;;;5077425;28;20069;-79
2023/10/03 10:18:47;;;;;;;20.23;7.18;;;25.90;53.30;;;;;;5060606;28;20120;-81
2023/10/03 10:21:31;;;;;;;19.60;6.90;;;25.80;53.70;;;;;;5065943;28;20034;-80
2023/10/03 10:24:20;;;;;;;20.00;7.53;;;25.80;53.70;;;;;;5064413;28;20074;-83
2023/10/03 10:26:49;;;;;;;21.25;7.03;;;25.80;53.90;;;;;;5062234;28;20558;-82
2023/10/03 10:29:24;;;;;;;21.70;6.90;;;25.80;54.30;;;;;;5075540;28;20039;-81
2023/10/03 10:31:59;;;;;;;23.27;7.45;;;25.70;54.30;;;;;;5076522;28;20024;-81
2023/10/03 10:34:35;;;;;;;21.02;6.72;;;25.70;54.60;;;;;;5082363;28;20517;-83
2023/10/03 10:37:09;;;;;;;21.25;7.55;;;25.70;54.40;;;;;;5063235;28;20047;-81
2023/10/03 10:39:56;;;;;;;22.95;7.43;;;25.60;54.80;;;;;;5066996;28;20033;-80
2023/10/03 10:42:29;;;;;;;28.35;8.52;;;25.60;55.00;;;;;;5070359;28;20033;-83
2023/10/03 10:45:13;;;;;;;21.23;7.60;;;25.60;55.10;;;;;;5059791;28;20754;-80
2023/10/03 10:47:54;;;;;;;19.05;7.03;;;25.60;55.20;;;;;;5067330;28;20033;-82
2023/10/03 10:50:26;;;;;;;19.75;6.95;;;25.50;55.20;;;;;;5071395;28;20032;-81
2023/10/03 10:53:01;;;;;;;20.67;7.13;;;25.50;55.00;;;;;;5059602;28;20020;-81
2023/10/03 10:55:29;;;;;;;21.15;7.50;;;25.50;55.00;;;;;;5064184;28;20029;-82
2023/10/03 10:58:12;;;;;;;22.83;7.43;;;25.50;54.90;;;;;;5057394;28;20052;-81
2023/10/03 11:00:40;;;;;;;16.52;5.82;;;25.50;55.00;;;;;;5071360;28;20039;-81
2023/10/03 11:03:08;;;;;;;17.55;6.63;;;25.50;54.90;;;;;;5063102;28;20087;-82
2023/10/03 11:05:50;;;;;;;16.75;6.88;;;25.50;55.10;;;;;;5067114;28;20459;-82
2023/10/03 11:08:18;;;;;;;23.23;6.90;;;25.40;54.90;;;;;;5068869;28;20020;-82
2023/10/03 11:10:55;;;;;;;21.67;6.65;;;25.40;54.80;;;;;;5074489;28;20052;-81
2023/10/03 11:13:24;;;;;;;20.80;6.97;;;25.50;55.00;;;;;;5074586;28;20027;-82
2023/10/03 11:15:53;;;;;;;20.45;7.18;;;25.40;54.90;;;;;;5072424;28;20063;-81
2023/10/03 11:18:32;;;;;;;16.70;6.60;;;25.40;54.90;;;;;;5074637;28;20032;-81
2023/10/03 11:21:03;;;;;;;16.33;6.78;;;25.40;54.90;;;;;;5069668;28;20361;-82
2023/10/03 11:23:31;;;;;;;17.60;6.82;;;25.40;55.10;;;;;;5069187;28;20029;-82
2023/10/03 11:26:00;;;;;;;19.08;6.72;;;25.40;54.80;;;;;;5061768;28;20045;-80
2023/10/03 11:28:29;;;;;;;15.90;6.50;;;25.40;55.00;;;;;;5064992;28;20021;-82
2023/10/03 11:31:04;;;;;;;19.35;6.47;;;25.40;55.10;;;;;;5061096;28;20029;-83
2023/10/03 11:33:42;;;;;;;18.45;7.10;;;25.40;55.20;;;;;;5055109;28;20082;-82
2023/10/03 11:36:10;;;;;;;19.77;7.65;;;25.40;55.10;;;;;;5071021;28;20558;-82
2023/10/03 11:38:49;;;;;;;18.50;7.68;;;25.40;55.30;;;;;;5069557;28;20064;-83
2023/10/03 11:41:33;;;;;;;14.93;6.18;;;25.40;55.50;;;;;;5070532;28;20033;-82
2023/10/03 11:44:01;;;;;;;18.73;6.80;;;25.30;55.40;;;;;;5070625;28;20024;-82
2023/10/03 11:46:37;;;;;;;16.40;6.78;;;25.30;55.40;;;;;;5053318;28;20377;-82
2023/10/03 11:49:04;;;;;;;24.77;7.05;;;25.30;55.50;;;;;;5053799;28;20018;-83
2023/10/03 11:51:38;;;;;;;18.58;7.47;;;25.30;55.50;;;;;;5063776;28;20051;-80
2023/10/03 11:54:08;;;;;;;18.08;6.50;;;25.30;55.80;;;;;;5071510;28;20029;-80
2023/10/03 11:56:49;;;;;;;21.55;7.60;;;25.30;56.10;;;;;;5054036;28;20087;-83
2023/10/03 11:59:17;;;;;;;25.52;8.13;;;25.30;56.00;;;;;;5061302;28;20214;-81
2023/10/03 12:01:56;;;;;;;26.75;8.00;;;25.30;56.00;;;;;;5070755;28;20024;-81
2023/10/03 12:04:24;;;;;;;23.05;7.28;;;25.30;56.40;;;;;;5069630;28;20151;-82
2023/10/03 12:06:52;;;;;;;25.73;7.90;;;25.20;56.40;;;;;;5049229;28;20060;-82
2023/10/03 12:09:20;;;;;;;20.20;7.35;;;25.20;56.30;;;;;;5053538;28;20021;-82
2023/10/03 12:11:48;;;;;;;18.75;7.65;;;25.20;56.60;;;;;;5060856;28;20472;-83
2023/10/03 12:14:15;;;;;;;19.92;7.40;;;25.20;56.70;;;;;;5053149;28;20067;-83
2023/10/03 12:16:45;;;;;;;17.65;7.05;;;25.10;56.80;;;;;;5054775;28;20661;-81
2023/10/03 12:19:13;;;;;;;25.40;8.00;;;25.10;56.80;;;;;;5060447;28;20362;-81
2023/10/03 12:21:40;;;;;;;22.52;7.05;;;25.00;56.90;;;;;;5073949;28;20103;-82
2023/10/03 12:24:08;;;;;;;21.20;6.40;;;25.00;57.10;;;;;;5064693;28;20059;-80
2023/10/03 12:26:35;;;;;;;19.42;6.85;;;25.00;57.10;;;;;;5053372;28;20483;-80
2023/10/03 12:29:04;;;;;;;18.48;6.90;;;25.00;57.00;;;;;;5062552;28;20353;-81
2023/10/03 12:31:37;;;;;;;18.38;7.00;;;24.90;57.10;;;;;;5063063;28;20029;-81
2023/10/03 12:34:04;;;;;;;22.75;7.60;;;24.90;57.10;;;;;;5054616;28;20048;-81
2023/10/03 12:36:33;;;;;;;20.38;6.95;;;24.80;57.00;;;;;;5071428;28;20368;-82
2023/10/03 12:39:10;;;;;;;18.73;6.63;;;24.80;57.30;;;;;;5061707;28;20141;-81
2023/10/03 12:41:38;;;;;;;19.60;7.13;;;24.80;57.30;;;;;;5060091;28;20056;-81
2023/10/03 12:44:05;;;;;;;22.45;7.28;;;24.70;57.40;;;;;;5057039;28;20357;-82
2023/10/03 12:46:33;;;;;;;21.70;7.13;;;24.70;57.50;;;;;;5052949;28;20032;-85
2023/10/03 12:49:00;;;;;;;23.52;6.72;;;24.70;57.70;;;;;;5054546;28;20143;-83
2023/10/03 12:51:27;;;;;;;21.67;7.03;;;24.60;57.80;;;;;;5057724;28;20020;-82
2023/10/03 12:53:55;;;;;;;23.08;7.10;;;24.60;57.90;;;;;;5069308;28;20028;-81
2023/10/03 12:56:23;;;;;;;18.52;6.68;;;24.60;57.80;;;;;;5065071;28;20035;-81
2023/10/03 12:58:50;;;;;;;21.33;7.28;;;24.50;57.90;;;;;;5053794;28;20037;-81
2023/10/03 13:01:17;;;;;;;22.15;7.10;;;24.50;57.90;;;;;;5055777;28;20094;-81
2023/10/03 13:03:46;;;;;;;17.60;6.47;;;24.50;57.80;;;;;;5069783;28;20020;-82